createdAt,value
2018-09-15T00:01:02.081Z,15.76
2018-09-15T00:02:12.034Z,15.83
2018-09-15T00:03:21.984Z,15.76
2018-09-15T00:04:31.937Z,15.76
2018-09-15T00:05:41.891Z,15.72
2018-09-15T00:06:51.586Z,15.69
2018-09-15T00:08:01.536Z,15.59
2018-09-15T00:09:11.249Z,15.63
2018-09-15T00:10:21.200Z,15.57
2018-09-15T00:11:30.646Z,15.63
2018-09-15T00:12:40.088Z,15.5
2018-09-15T00:13:50.049Z,15.48
2018-09-15T00:14:59.759Z,15.44
2018-09-15T00:16:09.710Z,15.47
2018-09-15T00:17:19.155Z,15.43
2018-09-15T00:18:29.107Z,15.41
2018-09-15T00:19:39.058Z,15.33
2018-09-15T00:20:49.024Z,15.3
2018-09-15T00:21:58.713Z,15.23
2018-09-15T00:23:09.006Z,15.26
2018-09-15T00:24:19.260Z,15.18
2018-09-15T00:25:29.214Z,15.27
2018-09-15T00:26:39.179Z,15.25
2018-09-15T00:27:49.139Z,15.19
2018-09-15T00:28:58.835Z,15.19
2018-09-15T00:30:08.793Z,15.12
2018-09-15T00:31:18.479Z,15.1
2018-09-15T00:32:28.424Z,15.14
2018-09-15T00:33:38.157Z,15.12
2018-09-15T00:34:48.105Z,15.07
2018-09-15T00:35:57.791Z,15.04
2018-09-15T00:37:07.749Z,15.07
2018-09-15T00:38:17.700Z,15.05
2018-09-15T00:39:27.395Z,15
2018-09-15T00:40:37.076Z,14.99
2018-09-15T00:41:47.241Z,14.94
2018-09-15T00:42:57.541Z,14.87
2018-09-15T00:44:07.502Z,14.89
2018-09-15T00:45:17.421Z,14.92
2018-09-15T00:46:27.374Z,14.93
2018-09-15T00:47:37.314Z,14.87
2018-09-15T00:48:47.263Z,14.92
2018-09-15T00:49:57.232Z,14.81
2018-09-15T00:51:07.185Z,14.85
2018-09-15T00:52:16.891Z,14.78
2018-09-15T00:53:26.848Z,14.82
2018-09-15T00:54:36.530Z,14.71
2018-09-15T00:55:46.480Z,14.71
2018-09-15T00:56:55.898Z,14.74
2018-09-15T00:58:05.852Z,14.77
2018-09-15T00:59:15.536Z,14.67
2018-09-15T01:00:24.981Z,14.66
2018-09-15T01:01:34.948Z,14.62
2018-09-15T01:02:44.902Z,14.61
2018-09-15T01:03:54.591Z,14.63
2018-09-15T01:05:04.533Z,14.62
2018-09-15T01:06:14.483Z,14.61
2018-09-15T01:07:24.443Z,14.61
2018-09-15T01:08:34.386Z,14.52
2018-09-15T01:09:44.071Z,14.58
2018-09-15T01:10:54.018Z,14.59
2018-09-15T01:12:03.968Z,14.52
2018-09-15T01:13:13.651Z,14.59
2018-09-15T01:14:23.773Z,14.59
2018-09-15T01:15:34.012Z,14.53
2018-09-15T01:16:44.219Z,14.61
2018-09-15T01:17:53.902Z,14.55
2018-09-15T01:19:03.864Z,14.58
2018-09-15T01:20:13.755Z,14.49
2018-09-15T01:21:23.711Z,14.51
2018-09-15T01:22:33.661Z,14.55
2018-09-15T01:23:43.356Z,14.52
2018-09-15T01:24:53.314Z,14.51
2018-09-15T01:26:03.523Z,14.55
2018-09-15T01:27:13.639Z,14.52
2018-09-15T01:28:23.603Z,14.53
2018-09-15T01:29:33.287Z,14.58
2018-09-15T01:30:42.976Z,14.61
2018-09-15T01:31:52.946Z,14.58
2018-09-15T01:33:02.899Z,14.58
2018-09-15T01:34:12.582Z,14.58
2018-09-15T01:35:22.532Z,14.62
2018-09-15T01:36:32.211Z,14.56
2018-09-15T01:37:41.635Z,14.51
2018-09-15T01:38:51.581Z,14.61
2018-09-15T01:40:01.328Z,14.61
2018-09-15T01:41:11.264Z,14.56
2018-09-15T01:42:20.952Z,14.53
2018-09-15T01:43:30.899Z,14.45
2018-09-15T01:44:40.630Z,14.48
2018-09-15T01:45:50.323Z,14.44
2018-09-15T01:47:00.015Z,14.43
2018-09-15T01:48:09.707Z,14.43
2018-09-15T01:49:19.650Z,14.4
2018-09-15T01:50:29.613Z,14.43
2018-09-15T01:51:39.560Z,14.36
2018-09-15T01:52:49.516Z,14.26
2018-09-15T01:53:59.456Z,14.2
2018-09-15T01:55:09.421Z,14.33
2018-09-15T01:56:19.121Z,14.26
2018-09-15T01:57:29.261Z,14.28
2018-09-15T01:58:39.508Z,14.15
2018-09-15T01:59:49.458Z,14.08
2018-09-15T02:00:59.414Z,14.08
2018-09-15T02:02:08.847Z,14.07
2018-09-15T02:03:18.544Z,14.07
2018-09-15T02:04:28.496Z,14.01
2018-09-15T02:05:38.455Z,14.01
2018-09-15T02:06:48.410Z,14.03
2018-09-15T02:07:58.379Z,13.94
2018-09-15T02:09:08.320Z,14
2018-09-15T02:10:18.011Z,13.95
2018-09-15T02:11:27.446Z,13.97
2018-09-15T02:12:37.399Z,14.05
2018-09-15T02:13:47.091Z,14
2018-09-15T02:14:57.025Z,13.98
2018-09-15T02:16:06.720Z,13.93
2018-09-15T02:17:16.661Z,13.89
2018-09-15T02:18:26.343Z,13.91
2018-09-15T02:19:36.297Z,13.89
2018-09-15T02:20:45.974Z,13.91
2018-09-15T02:21:55.928Z,13.87
2018-09-15T02:23:05.957Z,13.86
2018-09-15T02:24:16.047Z,13.89
2018-09-15T02:25:25.993Z,13.98
2018-09-15T02:26:35.680Z,13.91
2018-09-15T02:27:45.645Z,13.93
2018-09-15T02:28:55.498Z,13.94
2018-09-15T02:30:05.695Z,13.76
2018-09-15T02:31:15.666Z,13.79
2018-09-15T02:32:25.654Z,13.82
2018-09-15T02:33:35.647Z,13.87
2018-09-15T02:34:45.590Z,13.76
2018-09-15T02:35:55.549Z,13.76
2018-09-15T02:37:05.243Z,13.71
2018-09-15T02:38:14.934Z,13.76
2018-09-15T02:39:24.613Z,13.78
2018-09-15T02:40:34.289Z,13.65
2018-09-15T02:41:44.235Z,13.75
2018-09-15T02:42:54.176Z,13.71
2018-09-15T02:44:04.131Z,13.7
2018-09-15T02:45:14.084Z,13.7
2018-09-15T02:46:24.038Z,13.7
2018-09-15T02:47:33.971Z,13.75
2018-09-15T02:48:43.672Z,13.64
2018-09-15T02:49:53.608Z,13.65
2018-09-15T02:51:03.558Z,13.62
2018-09-15T02:52:13.531Z,13.58
2018-09-15T02:53:23.226Z,13.65
2018-09-15T02:54:33.191Z,13.6
2018-09-15T02:55:43.249Z,13.65
2018-09-15T02:56:53.208Z,13.6
2018-09-15T02:58:02.642Z,13.68
2018-09-15T02:59:12.601Z,13.65
2018-09-15T03:00:22.562Z,13.55
2018-09-15T03:01:31.987Z,13.52
2018-09-15T03:02:41.945Z,13.58
2018-09-15T03:03:51.901Z,13.54
2018-09-15T03:05:01.833Z,13.55
2018-09-15T03:06:11.543Z,13.55
2018-09-15T03:07:21.485Z,13.54
2018-09-15T03:08:31.507Z,13.5
2018-09-15T03:09:41.456Z,13.5
2018-09-15T03:10:51.627Z,13.43
2018-09-15T03:12:02.026Z,13.43
2018-09-15T03:13:11.977Z,13.46
2018-09-15T03:14:21.940Z,13.45
2018-09-15T03:15:31.910Z,13.42
2018-09-15T03:16:41.876Z,13.42
2018-09-15T03:17:51.563Z,13.33
2018-09-15T03:19:01.514Z,13.39
2018-09-15T03:20:11.470Z,13.33
2018-09-15T03:21:21.418Z,13.37
2018-09-15T03:22:31.113Z,13.27
2018-09-15T03:23:41.052Z,13.37
2018-09-15T03:24:50.735Z,13.26
2018-09-15T03:26:00.418Z,13.24
2018-09-15T03:27:10.358Z,13.3
2018-09-15T03:28:20.302Z,13.2
2018-09-15T03:29:30.246Z,13.2
2018-09-15T03:30:40.200Z,13.26
2018-09-15T03:31:50.256Z,13.2
2018-09-15T03:32:59.982Z,13.16
2018-09-15T03:34:09.678Z,13.23
2018-09-15T03:35:19.612Z,13.11
2018-09-15T03:36:29.302Z,13.12
2018-09-15T03:37:38.981Z,13.11
2018-09-15T03:38:48.942Z,13.12
2018-09-15T03:39:58.886Z,13.13
2018-09-15T03:41:08.594Z,13.09
2018-09-15T03:42:18.280Z,13.11
2018-09-15T03:43:28.241Z,13.09
2018-09-15T03:44:38.211Z,13.24
2018-09-15T03:45:47.907Z,13.23
2018-09-15T03:46:57.837Z,13.21
2018-09-15T03:48:07.532Z,13.24
2018-09-15T03:49:17.477Z,13.11
2018-09-15T03:50:27.417Z,13.09
2018-09-15T03:51:37.369Z,13.17
2018-09-15T03:52:47.347Z,13.17
2018-09-15T03:53:57.310Z,13.11
2018-09-15T03:55:07.246Z,13.12
2018-09-15T03:56:17.192Z,13.19
2018-09-15T03:57:26.876Z,13.13
2018-09-15T03:58:36.558Z,13.13
2018-09-15T03:59:46.530Z,13.09
2018-09-15T04:00:56.532Z,13.11
2018-09-15T04:02:06.523Z,13.16
2018-09-15T04:03:16.206Z,13.08
2018-09-15T04:04:26.155Z,13.06
2018-09-15T04:05:36.099Z,13.09
2018-09-15T04:06:45.787Z,13.09
2018-09-15T04:07:55.483Z,13.02
2018-09-15T04:09:05.433Z,13.05
2018-09-15T04:10:15.384Z,13.03
2018-09-15T04:11:25.078Z,13.02
2018-09-15T04:12:35.066Z,12.93
2018-09-15T04:13:44.764Z,13.01
2018-09-15T04:14:54.721Z,12.99
2018-09-15T04:16:04.411Z,12.91
2018-09-15T04:17:14.348Z,12.94
2018-09-15T04:18:24.314Z,12.94
2018-09-15T04:19:34.258Z,12.94
2018-09-15T04:20:43.956Z,12.95
2018-09-15T04:21:53.649Z,12.99
2018-09-15T04:23:03.613Z,12.87
2018-09-15T04:24:12.798Z,12.95
2018-09-15T04:25:22.753Z,12.91
2018-09-15T04:26:32.721Z,12.93
2018-09-15T04:27:42.663Z,12.98
2018-09-15T04:28:52.623Z,12.98
2018-09-15T04:30:02.590Z,12.98
2018-09-15T04:31:12.285Z,12.91
2018-09-15T04:32:22.250Z,12.93
2018-09-15T04:33:31.933Z,12.9
2018-09-15T04:34:41.867Z,12.87
2018-09-15T04:35:51.818Z,13.02
2018-09-15T04:37:01.829Z,12.99
2018-09-15T04:38:11.566Z,12.7
2018-09-15T04:39:21.513Z,12.95
2018-09-15T04:40:31.464Z,12.94
2018-09-15T04:41:41.651Z,12.84
2018-09-15T04:42:51.860Z,12.87
2018-09-15T04:44:01.801Z,12.87
2018-09-15T04:45:11.756Z,12.88
2018-09-15T04:46:21.457Z,12.95
2018-09-15T04:47:31.160Z,12.93
2018-09-15T04:48:41.107Z,12.99
2018-09-15T04:49:51.061Z,12.94
2018-09-15T04:51:01.008Z,13.05
2018-09-15T04:52:10.708Z,13.02
2018-09-15T04:53:20.400Z,13.02
2018-09-15T04:54:30.360Z,13.11
2018-09-15T04:55:40.311Z,13.06
2018-09-15T04:56:50.042Z,13.03
2018-09-15T04:57:59.991Z,13.03
2018-09-15T04:59:09.937Z,13.03
2018-09-15T05:00:19.888Z,13.09
2018-09-15T05:01:29.847Z,13.03
2018-09-15T05:02:39.791Z,13.03
2018-09-15T05:03:49.743Z,13.02
2018-09-15T05:04:59.696Z,13.09
2018-09-15T05:06:09.399Z,13.03
2018-09-15T05:07:19.369Z,13.12
2018-09-15T05:08:29.054Z,13.06
2018-09-15T05:09:38.740Z,13.19
2018-09-15T05:10:48.686Z,13.09
2018-09-15T05:11:58.623Z,13.09
2018-09-15T05:13:08.578Z,13.09
2018-09-15T05:14:18.541Z,13.11
2018-09-15T05:15:28.237Z,13.17
2018-09-15T05:16:37.957Z,13.19
2018-09-15T05:17:47.914Z,13.23
2018-09-15T05:18:57.907Z,13.24
2018-09-15T05:20:07.870Z,13.24
2018-09-15T05:21:17.812Z,13.26
2018-09-15T05:22:27.513Z,13.2
2018-09-15T05:23:37.210Z,13.26
2018-09-15T05:24:46.930Z,13.21
2018-09-15T05:25:56.885Z,13.2
2018-09-15T05:27:06.575Z,13.23
2018-09-15T05:28:16.527Z,13.28
2018-09-15T05:29:26.467Z,13.28
2018-09-15T05:30:36.733Z,13.3
2018-09-15T05:31:46.433Z,13.33
2018-09-15T05:32:56.397Z,13.28
2018-09-15T05:34:06.090Z,13.28
2018-09-15T05:35:15.524Z,13.28
2018-09-15T05:36:25.471Z,13.31
2018-09-15T05:37:35.169Z,13.31
2018-09-15T05:38:44.887Z,13.27
2018-09-15T05:39:54.698Z,13.26
2018-09-15T05:41:04.544Z,13.39
2018-09-15T05:42:14.501Z,13.31
2018-09-15T05:43:24.444Z,13.28
2018-09-15T05:44:34.398Z,13.43
2018-09-15T05:45:44.334Z,13.31
2018-09-15T05:46:54.020Z,13.33
2018-09-15T05:48:03.721Z,13.46
2018-09-15T05:49:13.687Z,13.4
2018-09-15T05:50:23.644Z,13.42
2018-09-15T05:51:33.614Z,13.43
2018-09-15T05:52:43.574Z,13.47
2018-09-15T05:53:53.545Z,13.54
2018-09-15T05:55:02.982Z,13.52
2018-09-15T05:56:13.267Z,13.49
2018-09-15T05:57:23.325Z,13.58
2018-09-15T05:58:33.035Z,13.6
2018-09-15T05:59:42.987Z,13.64
2018-09-15T06:00:52.942Z,13.68
2018-09-15T06:02:02.907Z,13.68
2018-09-15T06:03:12.890Z,13.67
2018-09-15T06:04:22.632Z,13.76
2018-09-15T06:05:32.581Z,13.78
2018-09-15T06:06:42.753Z,13.76
2018-09-15T06:07:53.051Z,13.8
2018-09-15T06:09:03.003Z,13.79
2018-09-15T06:10:12.971Z,13.79
2018-09-15T06:11:22.401Z,13.89
2018-09-15T06:12:32.359Z,13.89
2018-09-15T06:13:42.472Z,14.03
2018-09-15T06:14:52.629Z,14.01
2018-09-15T06:16:02.585Z,14
2018-09-15T06:17:12.269Z,13.91
2018-09-15T06:18:22.216Z,14.03
2018-09-15T06:19:32.176Z,14.07
2018-09-15T06:20:42.138Z,14.12
2018-09-15T06:21:52.091Z,14.13
2018-09-15T06:23:01.781Z,14.18
2018-09-15T06:24:11.744Z,14.18
2018-09-15T06:25:21.728Z,14.26
2018-09-15T06:26:31.436Z,14.26
2018-09-15T06:27:41.379Z,14.3
2018-09-15T06:28:51.432Z,14.36
2018-09-15T06:30:01.399Z,14.45
2018-09-15T06:31:11.432Z,14.51
2018-09-15T06:32:21.379Z,14.53
2018-09-15T06:33:31.070Z,14.51
2018-09-15T06:34:40.769Z,14.58
2018-09-15T06:35:50.728Z,14.61
2018-09-15T06:37:00.670Z,14.63
2018-09-15T06:38:10.621Z,14.59
2018-09-15T06:39:20.622Z,14.59
2018-09-15T06:40:30.478Z,14.77
2018-09-15T06:41:40.441Z,14.81
2018-09-15T06:42:50.148Z,14.81
2018-09-15T06:44:00.095Z,14.82
2018-09-15T06:45:09.789Z,14.71
2018-09-15T06:46:19.744Z,14.85
2018-09-15T06:47:29.683Z,14.89
2018-09-15T06:48:39.380Z,14.74
2018-09-15T06:49:49.354Z,14.85
2018-09-15T06:50:59.300Z,14.87
2018-09-15T06:52:09.004Z,14.87
2018-09-15T06:53:18.958Z,14.93
2018-09-15T06:54:28.669Z,14.97
2018-09-15T06:55:38.633Z,15
2018-09-15T06:56:48.577Z,15.05
2018-09-15T06:57:58.283Z,15.02
2018-09-15T06:59:08.272Z,15
2018-09-15T07:00:18.231Z,15
2018-09-15T07:01:28.212Z,15.05
2018-09-15T07:02:38.176Z,14.99
2018-09-15T07:03:48.141Z,15.11
2018-09-15T07:04:57.851Z,15.12
2018-09-15T07:06:07.809Z,15.19
2018-09-15T07:07:17.755Z,15.12
2018-09-15T07:08:27.738Z,15.22
2018-09-15T07:09:37.456Z,15.22
2018-09-15T07:10:47.408Z,15.27
2018-09-15T07:11:57.358Z,15.3
2018-09-15T07:13:07.613Z,15.3
2018-09-15T07:14:17.631Z,15.25
2018-09-15T07:15:27.336Z,15.35
2018-09-15T07:16:37.044Z,15.32
2018-09-15T07:17:47.000Z,15.45
2018-09-15T07:18:56.952Z,15.6
2018-09-15T07:20:06.789Z,15.57
2018-09-15T07:21:16.490Z,15.66
2018-09-15T07:22:26.447Z,15.66
2018-09-15T07:23:36.410Z,15.63
2018-09-15T07:24:46.359Z,15.73
2018-09-15T07:25:56.608Z,15.75
2018-09-15T07:27:06.850Z,15.72
2018-09-15T07:28:16.301Z,15.87
2018-09-15T07:29:26.233Z,15.84
2018-09-15T07:30:36.204Z,15.96
2018-09-15T07:31:45.958Z,15.84
2018-09-15T07:32:56.120Z,16
2018-09-15T07:34:06.080Z,15.91
2018-09-15T07:35:16.025Z,15.84
2018-09-15T07:36:25.731Z,15.81
2018-09-15T07:37:35.941Z,15.83
2018-09-15T07:38:46.105Z,15.91
2018-09-15T07:39:56.048Z,15.83
2018-09-15T07:41:06.005Z,15.85
2018-09-15T07:42:16.175Z,15.85
2018-09-15T07:43:25.889Z,15.85
2018-09-15T07:44:35.349Z,15.96
2018-09-15T07:45:45.370Z,15.87
2018-09-15T07:46:55.072Z,15.99
2018-09-15T07:48:04.784Z,15.94
2018-09-15T07:49:14.733Z,16.03
2018-09-15T07:50:24.692Z,15.96
2018-09-15T07:51:34.793Z,16.02
2018-09-15T07:52:44.995Z,16.08
2018-09-15T07:53:54.938Z,16.1
2018-09-15T07:55:04.891Z,16.1
2018-09-15T07:56:14.855Z,16.25
2018-09-15T07:57:24.768Z,16.24
2018-09-15T07:58:34.995Z,16.31
2018-09-15T07:59:44.943Z,16.31
2018-09-15T08:00:54.893Z,16.43
2018-09-15T08:02:05.045Z,16.4
2018-09-15T08:03:14.815Z,16.43
2018-09-15T08:04:24.775Z,16.46
2018-09-15T08:05:34.738Z,16.41
2018-09-15T08:06:44.700Z,16.43
2018-09-15T08:07:54.665Z,16.43
2018-09-15T08:09:04.643Z,16.47
2018-09-15T08:10:14.596Z,16.47
2018-09-15T08:11:24.313Z,16.47
2018-09-15T08:12:34.018Z,16.5
2018-09-15T08:13:43.989Z,16.64
2018-09-15T08:14:53.952Z,16.84
2018-09-15T08:16:03.634Z,16.99
2018-09-15T08:17:13.344Z,17.09
2018-09-15T08:18:23.331Z,17.07
2018-09-15T08:19:33.305Z,17.24
2018-09-15T08:20:43.453Z,17.34
2018-09-15T08:21:52.719Z,17.35
2018-09-15T08:23:02.683Z,17.47
2018-09-15T08:24:12.641Z,17.54
2018-09-15T08:25:22.596Z,17.76
2018-09-15T08:26:32.704Z,17.73
2018-09-15T08:27:43.023Z,17.68
2018-09-15T08:28:53.039Z,17.73
2018-09-15T08:30:02.741Z,17.78
2018-09-15T08:31:12.702Z,17.71
2018-09-15T08:32:22.677Z,17.79
2018-09-15T08:33:32.650Z,17.91
2018-09-15T08:34:42.831Z,17.95
2018-09-15T08:35:52.783Z,17.91
2018-09-15T08:37:02.488Z,17.95
2018-09-15T08:38:12.193Z,18.02
2018-09-15T08:39:21.924Z,17.98
2018-09-15T08:40:31.630Z,17.97
2018-09-15T08:41:41.583Z,18
2018-09-15T08:42:51.287Z,17.91
2018-09-15T08:44:01.247Z,17.86
2018-09-15T08:45:11.193Z,17.91
2018-09-15T08:46:21.157Z,17.98
2018-09-15T08:47:31.114Z,18.08
2018-09-15T08:48:40.841Z,18.06
2018-09-15T08:49:50.537Z,18.16
2018-09-15T08:51:00.527Z,18.18
2018-09-15T08:52:10.230Z,18.26
2018-09-15T08:53:19.925Z,18.18
2018-09-15T08:54:29.628Z,18.37
2018-09-15T08:55:39.308Z,18.3
2018-09-15T08:56:49.015Z,18.34
2018-09-15T08:57:58.212Z,18.49
2018-09-15T08:59:08.165Z,18.39
2018-09-15T09:00:17.925Z,18.37
2018-09-15T09:01:27.627Z,18.51
2018-09-15T09:02:37.599Z,18.49
2018-09-15T09:03:47.738Z,18.61
2018-09-15T09:04:58.067Z,18.7
2018-09-15T09:06:08.049Z,18.89
2018-09-15T09:07:17.750Z,19
2018-09-15T09:08:27.472Z,19.05
2018-09-15T09:09:37.450Z,19.11
2018-09-15T09:10:47.409Z,19.19
2018-09-15T09:11:57.373Z,19.3
2018-09-15T09:13:07.100Z,19.37
2018-09-15T09:14:16.817Z,19.47
2018-09-15T09:15:26.525Z,19.7
2018-09-15T09:16:36.279Z,19.66
2018-09-15T09:17:46.007Z,19.82
2018-09-15T09:18:55.962Z,20.24
2018-09-15T09:20:06.231Z,20.11
2018-09-15T09:21:15.901Z,19.85
2018-09-15T09:22:25.858Z,19.77
2018-09-15T09:23:35.323Z,19.81
2018-09-15T09:24:45.030Z,20.1
2018-09-15T09:25:55.002Z,19.97
2018-09-15T09:27:05.350Z,19.84
2018-09-15T09:28:15.346Z,19.57
2018-09-15T09:29:25.071Z,19.49
2018-09-15T09:30:34.803Z,19.44
2018-09-15T09:31:44.755Z,19.35
2018-09-15T09:32:54.207Z,19.44
2018-09-15T09:34:03.924Z,19.7
2018-09-15T09:35:13.384Z,19.85
2018-09-15T09:36:23.370Z,20.15
2018-09-15T09:37:33.345Z,20.21
2018-09-15T09:38:43.322Z,20.24
2018-09-15T09:39:53.043Z,20.44
2018-09-15T09:41:03.007Z,20.29
2018-09-15T09:42:12.729Z,20.24
2018-09-15T09:43:22.689Z,20.17
2018-09-15T09:44:32.401Z,20.19
2018-09-15T09:45:42.109Z,20.33
2018-09-15T09:46:51.801Z,20.52
2018-09-15T09:48:02.096Z,20.49
2018-09-15T09:49:11.905Z,20.5
2018-09-15T09:50:21.870Z,20.66
2018-09-15T09:51:31.834Z,20.82
2018-09-15T09:52:41.807Z,20.7
2018-09-15T09:53:51.772Z,20.75
2018-09-15T09:55:01.476Z,20.75
2018-09-15T09:56:11.168Z,20.6
2018-09-15T09:57:20.622Z,20.5
2018-09-15T09:58:30.596Z,20.32
2018-09-15T09:59:40.561Z,19.97
2018-09-15T10:00:50.271Z,19.82
2018-09-15T10:02:00.224Z,19.67
2018-09-15T10:03:10.193Z,19.67
2018-09-15T10:04:20.166Z,19.66
2018-09-15T10:05:30.129Z,19.84
2018-09-15T10:06:40.107Z,19.93
2018-09-15T10:07:49.854Z,20.08
2018-09-15T10:08:59.328Z,20.12
2018-09-15T10:10:09.381Z,20.12
2018-09-15T10:11:19.084Z,20.12
2018-09-15T10:12:29.055Z,20.24
2018-09-15T10:13:39.037Z,20.33
2018-09-15T10:14:49.009Z,20.29
2018-09-15T10:15:59.200Z,20.34
2018-09-15T10:17:09.385Z,20.29
2018-09-15T10:18:19.350Z,20.1
2018-09-15T10:19:28.796Z,20
2018-09-15T10:20:38.759Z,20.26
2018-09-15T10:21:48.520Z,20.27
2018-09-15T10:22:58.485Z,20.21
2018-09-15T10:24:08.662Z,20.24
2018-09-15T10:25:18.628Z,20.4
2018-09-15T10:26:28.345Z,20.58
2018-09-15T10:27:38.069Z,20.33
2018-09-15T10:28:48.051Z,20.26
2018-09-15T10:29:57.756Z,20.02
2018-09-15T10:31:07.723Z,19.87
2018-09-15T10:32:17.417Z,19.89
2018-09-15T10:33:27.114Z,19.92
2018-09-15T10:34:36.545Z,19.99
2018-09-15T10:35:46.506Z,19.93
2018-09-15T10:36:56.214Z,20
2018-09-15T10:38:06.184Z,20.03
2018-09-15T10:39:16.136Z,20.21
2018-09-15T10:40:26.391Z,20.32
2018-09-15T10:41:36.933Z,20.59
2018-09-15T10:42:46.645Z,20.85
2018-09-15T10:43:56.352Z,20.98
2018-09-15T10:45:06.067Z,21.19
2018-09-15T10:46:15.784Z,21.25
2018-09-15T10:47:25.768Z,21.33
2018-09-15T10:48:35.719Z,21.33
2018-09-15T10:49:45.436Z,21.11
2018-09-15T10:50:55.163Z,21.11
2018-09-15T10:52:05.122Z,20.7
2018-09-15T10:53:15.134Z,20.44
2018-09-15T10:54:24.834Z,20.22
2018-09-15T10:55:34.800Z,20.14
2018-09-15T10:56:44.707Z,20.14
2018-09-15T10:57:54.149Z,20.21
2018-09-15T10:59:03.865Z,20.22
2018-09-15T11:00:13.354Z,20.32
2018-09-15T11:01:23.440Z,20.48
2018-09-15T11:02:33.414Z,20.68
2018-09-15T11:03:43.439Z,20.8
2018-09-15T11:04:53.166Z,21.13
2018-09-15T11:06:03.335Z,21.56
2018-09-15T11:07:13.039Z,21.77
2018-09-15T11:08:23.000Z,21.7
2018-09-15T11:09:32.966Z,21.65
2018-09-15T11:10:42.933Z,21.48
2018-09-15T11:11:52.655Z,21.5
2018-09-15T11:13:02.365Z,21.63
2018-09-15T11:14:12.450Z,21.84
2018-09-15T11:15:22.158Z,22.12
2018-09-15T11:16:31.860Z,22.1
2018-09-15T11:17:41.565Z,22.22
2018-09-15T11:18:51.524Z,22
2018-09-15T11:20:01.495Z,21.99
2018-09-15T11:21:11.205Z,21.84
2018-09-15T11:22:21.183Z,21.7
2018-09-15T11:23:31.535Z,21.69
2018-09-15T11:24:41.522Z,21.78
2018-09-15T11:25:51.496Z,21.88
2018-09-15T11:27:01.467Z,21.78
2018-09-15T11:28:11.630Z,21.7
2018-09-15T11:29:21.622Z,21.62
2018-09-15T11:30:31.610Z,21.66
2018-09-15T11:31:41.586Z,21.84
2018-09-15T11:32:51.317Z,21.92
2018-09-15T11:34:01.414Z,21.74
2018-09-15T11:35:11.670Z,21.8
2018-09-15T11:36:21.138Z,21.92
2018-09-15T11:37:31.112Z,22.12
2018-09-15T11:38:41.104Z,22.18
2018-09-15T11:39:51.110Z,22.41
2018-09-15T11:41:01.075Z,22.52
2018-09-15T11:42:10.900Z,22.8
2018-09-15T11:43:20.861Z,22.68
2018-09-15T11:44:30.862Z,22.53
2018-09-15T11:45:40.836Z,22.44
2018-09-15T11:46:50.313Z,22.16
2018-09-15T11:48:00.658Z,22.19
2018-09-15T11:49:11.083Z,22.04
2018-09-15T11:50:21.066Z,21.99
2018-09-15T11:51:31.055Z,21.89
2018-09-15T11:52:40.762Z,21.63
2018-09-15T11:53:50.635Z,21.66
2018-09-15T11:55:00.946Z,21.6
2018-09-15T11:56:11.125Z,21.62
2018-09-15T11:57:21.088Z,21.56
2018-09-15T11:58:31.064Z,21.58
2018-09-15T11:59:40.786Z,21.6
2018-09-15T12:00:50.232Z,21.59
2018-09-15T12:02:00.102Z,21.72
2018-09-15T12:03:10.099Z,21.62
2018-09-15T12:04:20.079Z,21.41
2018-09-15T12:05:30.035Z,21.43
2018-09-15T12:06:39.483Z,21.38
2018-09-15T12:07:49.572Z,21.43
2018-09-15T12:08:59.816Z,21.47
2018-09-15T12:10:09.775Z,21.51
2018-09-15T12:11:19.510Z,21.5
2018-09-15T12:12:28.959Z,21.44
2018-09-15T12:13:38.900Z,21.33
2018-09-15T12:14:49.073Z,21.29
2018-09-15T12:15:59.039Z,21.28
2018-09-15T12:17:09.005Z,21.25
2018-09-15T12:18:18.978Z,21.11
2018-09-15T12:19:28.669Z,20.98
2018-09-15T12:20:38.632Z,20.89
2018-09-15T12:21:48.798Z,20.9
2018-09-15T12:22:58.500Z,20.86
2018-09-15T12:24:08.452Z,20.74
2018-09-15T12:25:18.399Z,20.68
2018-09-15T12:26:28.364Z,20.58
2018-09-15T12:27:38.085Z,20.55
2018-09-15T12:28:47.921Z,20.59
2018-09-15T12:29:57.895Z,20.55
2018-09-15T12:31:07.857Z,20.58
2018-09-15T12:32:17.839Z,20.55
2018-09-15T12:33:27.980Z,20.56
2018-09-15T12:34:38.203Z,20.67
2018-09-15T12:35:48.204Z,20.89
2018-09-15T12:36:58.172Z,21.01
2018-09-15T12:38:08.606Z,21.14
2018-09-15T12:39:18.760Z,21.28
2018-09-15T12:40:28.822Z,21.33
2018-09-15T12:41:38.803Z,21.51
2018-09-15T12:42:48.789Z,21.83
2018-09-15T12:43:58.505Z,21.78
2018-09-15T12:45:08.594Z,21.78
2018-09-15T12:46:18.986Z,21.72
2018-09-15T12:47:28.970Z,21.7
2018-09-15T12:48:38.940Z,21.59
2018-09-15T12:49:48.892Z,21.89
2018-09-15T12:50:58.347Z,22.12
2018-09-15T12:52:08.648Z,22.16
2018-09-15T12:53:18.824Z,22.41
2018-09-15T12:54:28.801Z,22.62
2018-09-15T12:55:38.523Z,22.76
2018-09-15T12:56:48.486Z,22.63
2018-09-15T12:57:58.787Z,22.52
2018-09-15T12:59:08.523Z,22.63
2018-09-15T13:00:18.502Z,22.68
2018-09-15T13:01:28.502Z,22.74
2018-09-15T13:02:38.494Z,22.71
2018-09-15T13:03:48.479Z,22.62
2018-09-15T13:04:58.185Z,22.51
2018-09-15T13:06:08.155Z,22.55
2018-09-15T13:07:17.913Z,22.41
2018-09-15T13:08:27.889Z,22.3
2018-09-15T13:09:37.600Z,22.1
2018-09-15T13:10:47.580Z,22.06
2018-09-15T13:11:57.008Z,21.83
2018-09-15T13:13:06.459Z,21.75
2018-09-15T13:14:16.422Z,21.51
2018-09-15T13:15:26.773Z,21.51
2018-09-15T13:16:37.047Z,21.51
2018-09-15T13:17:46.519Z,21.5
2018-09-15T13:18:56.480Z,21.53
2018-09-15T13:20:06.444Z,21.54
2018-09-15T13:21:16.419Z,21.62
2018-09-15T13:22:26.365Z,21.72
2018-09-15T13:23:36.435Z,21.62
2018-09-15T13:24:46.554Z,21.44
2018-09-15T13:25:56.712Z,21.4
2018-09-15T13:27:06.423Z,21.32
2018-09-15T13:28:16.398Z,21.37
2018-09-15T13:29:26.184Z,21.26
2018-09-15T13:30:36.160Z,21.22
2018-09-15T13:31:46.137Z,21.26
2018-09-15T13:32:55.855Z,21.03
2018-09-15T13:34:05.870Z,20.96
2018-09-15T13:35:15.832Z,20.9
2018-09-15T13:36:25.796Z,21.03
2018-09-15T13:37:35.769Z,20.92
2018-09-15T13:38:45.532Z,20.85
2018-09-15T13:39:55.230Z,20.77
2018-09-15T13:41:05.197Z,20.7
2018-09-15T13:42:15.180Z,20.8
2018-09-15T13:43:25.187Z,20.75
2018-09-15T13:44:35.149Z,20.77
2018-09-15T13:45:44.859Z,20.78
2018-09-15T13:46:55.119Z,20.78
2018-09-15T13:48:05.075Z,20.78
2018-09-15T13:49:15.038Z,20.78
2018-09-15T13:50:25.019Z,20.86
2018-09-15T13:51:34.726Z,20.8
2018-09-15T13:52:44.912Z,20.77
2018-09-15T13:53:54.870Z,20.77
2018-09-15T13:55:04.849Z,20.88
2018-09-15T13:56:14.840Z,20.88
2018-09-15T13:57:24.788Z,20.9
2018-09-15T13:58:34.517Z,21.03
2018-09-15T13:59:44.492Z,21.07
2018-09-15T14:00:53.935Z,21.17
2018-09-15T14:02:03.642Z,21.14
2018-09-15T14:03:13.601Z,21.15
2018-09-15T14:04:23.547Z,21.05
2018-09-15T14:05:33.497Z,21.05
2018-09-15T14:06:43.520Z,21.13
2018-09-15T14:07:53.498Z,21.15
2018-09-15T14:09:02.704Z,21.17
2018-09-15T14:10:19.008Z,21.23
2018-09-15T14:11:28.754Z,21.32
2018-09-15T14:12:38.722Z,21.3
2018-09-15T14:13:48.426Z,21.4
2018-09-15T14:14:58.390Z,21.38
2018-09-15T14:16:08.096Z,21.32
2018-09-15T14:17:18.181Z,21.37
2018-09-15T14:18:28.351Z,21.23
2018-09-15T14:19:38.317Z,21.35
2018-09-15T14:20:48.292Z,21.29
2018-09-15T14:21:58.258Z,21.37
2018-09-15T14:23:08.309Z,21.28
2018-09-15T14:24:18.327Z,21.33
2018-09-15T14:25:28.033Z,21.26
2018-09-15T14:26:38.008Z,21.28
2018-09-15T14:27:47.975Z,21.33
2018-09-15T14:28:57.684Z,21.25
2018-09-15T14:30:07.655Z,21.14
2018-09-15T14:31:17.105Z,21.1
2018-09-15T14:32:27.075Z,21
2018-09-15T14:33:37.045Z,21.07
2018-09-15T14:34:46.860Z,21.07
2018-09-15T14:35:56.389Z,21.05
2018-09-15T14:37:06.089Z,20.88
2018-09-15T14:38:16.055Z,20.89
2018-09-15T14:39:26.071Z,20.9
2018-09-15T14:40:36.040Z,20.92
2018-09-15T14:41:46.010Z,20.93
2018-09-15T14:42:55.977Z,20.98
2018-09-15T14:44:05.988Z,20.93
2018-09-15T14:45:15.811Z,20.86
2018-09-15T14:46:25.764Z,20.88
2018-09-15T14:47:35.709Z,20.86
2018-09-15T14:48:45.406Z,20.83
2018-09-15T14:49:55.117Z,20.74
2018-09-15T14:51:05.086Z,20.75
2018-09-15T14:52:15.047Z,20.75
2018-09-15T14:53:24.756Z,20.83
2018-09-15T14:54:34.716Z,20.78
2018-09-15T14:55:44.672Z,20.75
2018-09-15T14:56:54.632Z,20.73
2018-09-15T14:58:04.341Z,20.68
2018-09-15T14:59:14.308Z,20.71
2018-09-15T15:00:24.275Z,20.7
2018-09-15T15:01:34.033Z,20.68
2018-09-15T15:02:44.199Z,20.68
2018-09-15T15:03:53.894Z,20.66
2018-09-15T15:05:03.864Z,20.63